createdAt,value
2023-05-23T00:00:01.826Z,9.681117
2023-05-23T00:01:01.829Z,9.681063
2023-05-23T00:02:01.894Z,9.681118
2023-05-23T00:03:01.901Z,9.681096
2023-05-23T00:04:02.001Z,9.681111
2023-05-23T00:05:01.799Z,9.681075
2023-05-23T00:06:01.888Z,9.681040
2023-05-23T00:07:01.761Z,9.681067
2023-05-23T00:08:01.837Z,9.681068
2023-05-23T00:09:01.783Z,9.681081
2023-05-23T00:10:01.784Z,9.681040
2023-05-23T00:11:01.757Z,9.681013
2023-05-23T00:12:01.760Z,9.680991
2023-05-23T00:13:01.706Z,9.681100
2023-05-23T00:14:01.715Z,9.681129
2023-05-23T00:15:01.687Z,9.681153
2023-05-23T00:16:01.723Z,9.681160
2023-05-23T00:17:01.794Z,9.681168
2023-05-23T00:18:01.693Z,9.681152
2023-05-23T00:19:01.725Z,9.681163
2023-05-23T00:20:01.659Z,9.681080
2023-05-23T00:21:01.651Z,9.681102
2023-05-23T00:22:01.793Z,9.681040
2023-05-23T00:23:01.667Z,9.681113
2023-05-23T00:24:01.662Z,9.681056
2023-05-23T00:25:01.613Z,9.681166
2023-05-23T00:26:01.641Z,9.681113
2023-05-23T00:27:01.591Z,9.681129
2023-05-23T00:28:01.598Z,9.681076
2023-05-23T00:29:01.595Z,9.681088
2023-05-23T00:30:01.594Z,9.681067
2023-05-23T00:31:01.611Z,9.680981
2023-05-23T00:32:01.641Z,9.681203
2023-05-23T00:33:01.607Z,9.681116
2023-05-23T00:34:01.555Z,9.681130
2023-05-23T00:35:01.557Z,9.681115
2023-05-23T00:36:01.537Z,9.681139
2023-05-23T00:37:02.216Z,9.681135
2023-05-23T00:38:02.471Z,9.681159
2023-05-23T00:39:01.519Z,9.681115
2023-05-23T00:40:01.513Z,9.681101
2023-05-23T00:41:01.493Z,9.681140
2023-05-23T00:42:01.495Z,9.681083
2023-05-23T00:43:01.470Z,9.681070
2023-05-23T00:44:01.489Z,9.681072
2023-05-23T00:45:02.317Z,9.681058
2023-05-23T00:46:01.874Z,9.681137
2023-05-23T00:47:02.410Z,9.681176
2023-05-23T00:48:01.963Z,9.681140
2023-05-23T00:49:01.419Z,9.681146
2023-05-23T00:50:01.551Z,9.681190
2023-05-23T00:51:01.419Z,9.681198
2023-05-23T00:52:02.379Z,9.681195
2023-05-23T00:53:01.430Z,9.681177
2023-05-23T00:54:01.431Z,9.681160
2023-05-23T00:55:01.381Z,9.681161
2023-05-23T00:56:01.387Z,9.681191
2023-05-23T00:57:01.359Z,9.681210
2023-05-23T00:58:01.379Z,9.681181
2023-05-23T00:59:01.379Z,9.681199
2023-05-23T01:00:01.360Z,9.681045
2023-05-23T01:01:01.334Z,9.681006
2023-05-23T01:02:01.406Z,9.681126
2023-05-23T01:03:01.427Z,9.681191
2023-05-23T01:04:01.357Z,9.681093
2023-05-23T01:05:01.306Z,9.681132
2023-05-23T01:06:01.302Z,9.681191
2023-05-23T01:07:01.330Z,9.681127
2023-05-23T01:08:01.313Z,9.681151
2023-05-23T01:09:01.353Z,9.681243
2023-05-23T01:10:01.375Z,9.681161
2023-05-23T01:11:01.244Z,9.681196
2023-05-23T01:12:01.330Z,9.681238
2023-05-23T01:13:01.241Z,9.681149
2023-05-23T01:14:01.247Z,9.681157
2023-05-23T01:15:01.236Z,9.681183
2023-05-23T01:16:02.900Z,9.681124
2023-05-23T01:17:01.188Z,9.681126
2023-05-23T01:18:01.272Z,9.681104
2023-05-23T01:19:01.229Z,9.681135
2023-05-23T01:20:01.219Z,9.681253
2023-05-23T01:21:01.232Z,9.681228
2023-05-23T01:22:01.166Z,9.681235
2023-05-23T01:23:01.187Z,9.681224
2023-05-23T01:24:01.156Z,9.681189
2023-05-23T01:25:01.145Z,9.681196
2023-05-23T01:26:01.245Z,9.681209
2023-05-23T01:27:01.156Z,9.681127
2023-05-23T01:28:01.125Z,9.681184
2023-05-23T01:29:01.107Z,9.681256
2023-05-23T01:30:01.151Z,9.681235
2023-05-23T01:31:01.079Z,9.681192
2023-05-23T01:32:01.143Z,9.681163
2023-05-23T01:33:01.127Z,9.681148
2023-05-23T01:34:01.087Z,9.681125
2023-05-23T01:35:01.051Z,9.681102
2023-05-23T01:36:01.058Z,9.681099
2023-05-23T01:37:01.025Z,9.681081
2023-05-23T01:38:01.049Z,9.681096
2023-05-23T01:39:01.025Z,9.681026
2023-05-23T01:40:01.015Z,9.681100
2023-05-23T01:41:01.009Z,9.681085
2023-05-23T01:42:01.104Z,9.681134
2023-05-23T01:43:00.981Z,9.681087
2023-05-23T01:44:01.011Z,9.681105
2023-05-23T01:45:00.980Z,9.681115
2023-05-23T01:46:01.065Z,9.681022
2023-05-23T01:47:00.953Z,9.680982
2023-05-23T01:48:00.984Z,9.681000
2023-05-23T01:49:00.959Z,9.681096
2023-05-23T01:50:00.937Z,9.681085
2023-05-23T01:51:00.908Z,9.681083
2023-05-23T01:52:00.961Z,9.681083
2023-05-23T01:53:00.912Z,9.681100
2023-05-23T01:54:00.896Z,9.681069
2023-05-23T01:55:00.886Z,9.681016
2023-05-23T01:56:00.904Z,9.681036
2023-05-23T01:57:00.884Z,9.681147
2023-05-23T01:58:00.974Z,9.681152
2023-05-23T01:59:00.844Z,9.681019
2023-05-23T02:00:00.873Z,9.681134
2023-05-23T02:01:00.936Z,9.681117
2023-05-23T02:02:00.836Z,9.681204
2023-05-23T02:03:00.916Z,9.681165
2023-05-23T02:04:00.852Z,9.681142
2023-05-23T02:05:00.795Z,9.681093
2023-05-23T02:06:00.829Z,9.681152
2023-05-23T02:07:00.775Z,9.681096
2023-05-23T02:08:00.796Z,9.681093
2023-05-23T02:09:00.820Z,9.681027
2023-05-23T02:10:00.775Z,9.681025
2023-05-23T02:11:00.752Z,9.681035
2023-05-23T02:12:00.780Z,9.681054
2023-05-23T02:13:00.763Z,9.681108
2023-05-23T02:14:00.816Z,9.681097
2023-05-23T02:15:00.728Z,9.681075
2023-05-23T02:16:00.713Z,9.681041
2023-05-23T02:17:00.749Z,9.681065
2023-05-23T02:18:00.746Z,9.681082
2023-05-23T02:19:00.709Z,9.681063
2023-05-23T02:20:00.679Z,9.681088
2023-05-23T02:21:00.694Z,9.681101
2023-05-23T02:22:00.696Z,9.681024
2023-05-23T02:23:00.666Z,9.681091
2023-05-23T02:24:00.672Z,9.681099
2023-05-23T02:25:00.634Z,9.681087
2023-05-23T02:26:00.752Z,9.681038
2023-05-23T02:27:00.835Z,9.681080
2023-05-23T02:28:00.683Z,9.681094
2023-05-23T02:29:00.687Z,9.681061
2023-05-23T02:30:00.693Z,9.681036
2023-05-23T02:31:00.683Z,9.681046
2023-05-23T02:32:00.589Z,9.681046
2023-05-23T02:33:00.627Z,9.681034
2023-05-23T02:34:00.614Z,9.681040
2023-05-23T02:35:00.545Z,9.681028
2023-05-23T02:36:00.594Z,9.681057
2023-05-23T02:37:00.552Z,9.681037
2023-05-23T02:38:00.562Z,9.681044
2023-05-23T02:39:00.570Z,9.681072
2023-05-23T02:40:00.520Z,9.681033
2023-05-23T02:41:00.539Z,9.681045
2023-05-23T02:42:00.563Z,9.681056
2023-05-23T02:43:00.483Z,9.681013
2023-05-23T02:44:00.514Z,9.681007
2023-05-23T02:45:00.487Z,9.681046
2023-05-23T02:46:00.615Z,9.681053
2023-05-23T02:47:00.472Z,9.681046
2023-05-23T02:48:00.547Z,9.681016
2023-05-23T02:49:00.446Z,9.681042
2023-05-23T02:50:00.430Z,9.681054
2023-05-23T02:51:00.401Z,9.681024
2023-05-23T02:52:00.421Z,9.681028
2023-05-23T02:53:00.389Z,9.681042
2023-05-23T02:54:00.412Z,9.681055
2023-05-23T02:55:00.368Z,9.681023
2023-05-23T02:56:00.402Z,9.681070
2023-05-23T02:57:00.357Z,9.681027
2023-05-23T02:58:00.374Z,9.680991
2023-05-23T02:59:00.382Z,9.681013
2023-05-23T03:00:00.408Z,9.681034
2023-05-23T03:01:00.328Z,9.681021
2023-05-23T03:02:00.441Z,9.681045
2023-05-23T03:03:00.457Z,9.681042
2023-05-23T03:04:00.408Z,9.681026
2023-05-23T03:05:00.369Z,9.681049
2023-05-23T03:06:00.313Z,9.681080
2023-05-23T03:07:00.285Z,9.681026
2023-05-23T03:08:00.369Z,9.681084
2023-05-23T03:09:00.262Z,9.681075
2023-05-23T03:10:00.237Z,9.681016
2023-05-23T03:11:00.270Z,9.681129
2023-05-23T03:12:00.279Z,9.681083
2023-05-23T03:13:00.266Z,9.681071
2023-05-23T03:14:00.209Z,9.681061
2023-05-23T03:15:00.245Z,9.681018
2023-05-23T03:16:00.285Z,9.681001
2023-05-23T03:17:00.180Z,9.681033
2023-05-23T03:18:00.300Z,9.681013
2023-05-23T03:19:00.224Z,9.681073
2023-05-23T03:20:00.207Z,9.681124
2023-05-23T03:21:00.200Z,9.681061
2023-05-23T03:22:00.153Z,9.681101
2023-05-23T03:23:00.180Z,9.681067
2023-05-23T03:24:00.162Z,9.681136
2023-05-23T03:25:00.189Z,9.681064
2023-05-23T03:26:00.165Z,9.681054
2023-05-23T03:27:00.156Z,9.681050
2023-05-23T03:28:00.105Z,9.681052
2023-05-23T03:29:00.168Z,9.681117
2023-05-23T03:30:00.107Z,9.681174
2023-05-23T03:31:00.123Z,9.681213
2023-05-23T03:32:00.277Z,9.681240
2023-05-23T03:33:00.229Z,9.681253
2023-05-23T03:34:00.175Z,9.681096
2023-05-23T03:35:00.047Z,9.681116
2023-05-23T03:36:00.042Z,9.681171
2023-05-23T03:37:00.044Z,9.681131
2023-05-23T03:38:00.068Z,9.681117
2023-05-23T03:39:00.021Z,9.681080
2023-05-23T03:40:00.038Z,9.681119
2023-05-23T03:40:59.990Z,9.681105
2023-05-23T03:41:59.983Z,9.681045
2023-05-23T03:43:00.022Z,9.681176
2023-05-23T03:43:59.965Z,9.681112
2023-05-23T03:44:59.953Z,9.681194
2023-05-23T03:45:59.976Z,9.681105
2023-05-23T03:47:00.008Z,9.681110
2023-05-23T03:48:00.005Z,9.681117
2023-05-23T03:48:59.950Z,9.681170
2023-05-23T03:50:00.042Z,9.681112
2023-05-23T03:50:59.932Z,9.681162
2023-05-23T03:51:59.905Z,9.681207
2023-05-23T03:52:59.909Z,9.681140
2023-05-23T03:53:59.894Z,9.681049
2023-05-23T03:54:59.907Z,9.681152
2023-05-23T03:55:59.879Z,9.681125
2023-05-23T03:56:59.863Z,9.681098
2023-05-23T03:57:59.857Z,9.681037
2023-05-23T03:58:59.850Z,9.681009
2023-05-23T03:59:59.837Z,9.680963
2023-05-23T04:01:01.912Z,9.681053
2023-05-23T04:01:59.921Z,9.681006
2023-05-23T04:02:59.967Z,9.680984
2023-05-23T04:03:59.993Z,9.681017
2023-05-23T04:04:59.807Z,9.681042
2023-05-23T04:05:59.893Z,9.681064
2023-05-23T04:06:59.809Z,9.681067
2023-05-23T04:07:59.779Z,9.681085
2023-05-23T04:08:59.758Z,9.681103
2023-05-23T04:09:59.757Z,9.681100
2023-05-23T04:10:59.909Z,9.681182
2023-05-23T04:11:59.754Z,9.681128
2023-05-23T04:12:59.806Z,9.681150
2023-05-23T04:13:59.724Z,9.681211
2023-05-23T04:14:59.749Z,9.681198
2023-05-23T04:15:59.727Z,9.681250
2023-05-23T04:16:59.720Z,9.681124
2023-05-23T04:17:59.802Z,9.681181
2023-05-23T04:18:59.697Z,9.681049
2023-05-23T04:19:59.680Z,9.681066
2023-05-23T04:20:59.662Z,9.680988
2023-05-23T04:21:59.775Z,9.681046
2023-05-23T04:22:59.698Z,9.681016
2023-05-23T04:23:59.651Z,9.681103
2023-05-23T04:24:59.659Z,9.681047
2023-05-23T04:25:59.625Z,9.681077
2023-05-23T04:26:59.615Z,9.681028
2023-05-23T04:27:59.625Z,9.681106
2023-05-23T04:28:59.620Z,9.681090
2023-05-23T04:29:59.640Z,9.681125
2023-05-23T04:30:59.635Z,9.681078
2023-05-23T04:31:59.608Z,9.681148
2023-05-23T04:32:59.618Z,9.681083
2023-05-23T04:33:59.578Z,9.681093
2023-05-23T04:34:59.568Z,9.681171
2023-05-23T04:35:59.578Z,9.681118
2023-05-23T04:36:59.555Z,9.681109
2023-05-23T04:37:59.626Z,9.681108
2023-05-23T04:38:59.535Z,9.681181
2023-05-23T04:39:59.543Z,9.681154
2023-05-23T04:40:59.632Z,9.681183
2023-05-23T04:41:59.547Z,9.681107
2023-05-23T04:42:59.515Z,9.681097
2023-05-23T04:43:59.510Z,9.681213
2023-05-23T04:44:59.477Z,9.681347
2023-05-23T04:45:59.532Z,9.681254
2023-05-23T04:46:59.487Z,9.681156
2023-05-23T04:47:59.555Z,9.681175
2023-05-23T04:48:59.459Z,9.681170
2023-05-23T04:49:59.457Z,9.681031
2023-05-23T04:50:59.471Z,9.681084
2023-05-23T04:51:59.492Z,9.681091
2023-05-23T04:52:59.454Z,9.681055
2023-05-23T04:53:59.499Z,9.681032
2023-05-23T04:54:59.419Z,9.681116
2023-05-23T04:55:59.435Z,9.681066
2023-05-23T04:56:59.389Z,9.681105
2023-05-23T04:57:59.441Z,9.681100
2023-05-23T04:58:59.400Z,9.681113
2023-05-23T04:59:59.396Z,9.681112
2023-05-23T05:00:59.459Z,9.681071
2023-05-23T05:01:59.367Z,9.681075
2023-05-23T05:02:59.384Z,9.681168
2023-05-23T05:03:59.399Z,9.681171
2023-05-23T05:04:59.329Z,9.681123
2023-05-23T05:05:59.339Z,9.681123
2023-05-23T05:06:59.290Z,9.681105
2023-05-23T05:07:59.317Z,9.681170
2023-05-23T05:08:59.330Z,9.681186
2023-05-23T05:10:01.078Z,9.681130
2023-05-23T05:10:59.315Z,9.681170
2023-05-23T05:11:59.294Z,9.681137
2023-05-23T05:12:59.256Z,9.681174
2023-05-23T05:13:59.294Z,9.681175
2023-05-23T05:14:59.225Z,9.681086
2023-05-23T05:15:59.269Z,9.681057
2023-05-23T05:16:59.232Z,9.681153
2023-05-23T05:17:59.222Z,9.681179
2023-05-23T05:18:59.240Z,9.681151
2023-05-23T05:19:59.209Z,9.681208
2023-05-23T05:20:59.257Z,9.681118
2023-05-23T05:21:59.173Z,9.681089
2023-05-23T05:22:59.138Z,9.681075
2023-05-23T05:23:59.154Z,9.681098
2023-05-23T05:24:59.147Z,9.681066
2023-05-23T05:25:59.241Z,9.681142
2023-05-23T05:26:59.174Z,9.681137
2023-05-23T05:27:59.144Z,9.681120
2023-05-23T05:28:59.123Z,9.681149
2023-05-23T05:29:59.123Z,9.681113
2023-05-23T05:30:59.136Z,9.681191
2023-05-23T05:31:59.082Z,9.681201
2023-05-23T05:32:59.118Z,9.681121
2023-05-23T05:33:59.105Z,9.681104
2023-05-23T05:34:59.062Z,9.681080
2023-05-23T05:35:59.050Z,9.681130
2023-05-23T05:36:59.064Z,9.681067
2023-05-23T05:37:59.047Z,9.681071
2023-05-23T05:38:59.078Z,9.681074
2023-05-23T05:39:59.101Z,9.681123
2023-05-23T05:40:59.021Z,9.681100
2023-05-23T05:41:59.110Z,9.681033
2023-05-23T05:42:59.003Z,9.681086
2023-05-23T05:43:59.044Z,9.681118
2023-05-23T05:44:59.012Z,9.681051
2023-05-23T05:45:59.014Z,9.681027
2023-05-23T05:46:58.978Z,9.680991
2023-05-23T05:47:59.033Z,9.681043
2023-05-23T05:48:58.962Z,9.681071
2023-05-23T05:49:58.936Z,9.681065
2023-05-23T05:50:58.934Z,9.681061
2023-05-23T05:51:58.941Z,9.681097
2023-05-23T05:52:58.925Z,9.681073
2023-05-23T05:53:58.955Z,9.681103
2023-05-23T05:54:58.928Z,9.681118
2023-05-23T05:55:58.880Z,9.681031
2023-05-23T05:56:58.868Z,9.681084
2023-05-23T05:57:58.987Z,9.680971
2023-05-23T05:58:58.850Z,9.681051
2023-05-23T05:59:58.880Z,9.681085
2023-05-23T06:00:58.841Z,9.681051
2023-05-23T06:01:58.897Z,9.681093
2023-05-23T06:02:58.936Z,9.681075
2023-05-23T06:03:59.059Z,9.681086
2023-05-23T06:04:58.824Z,9.681046
2023-05-23T06:05:58.822Z,9.681062
2023-05-23T06:06:58.794Z,9.681082
2023-05-23T06:07:58.815Z,9.681081
2023-05-23T06:08:58.791Z,9.681068
2023-05-23T06:09:58.796Z,9.681072
2023-05-23T06:10:58.793Z,9.681046
2023-05-23T06:11:58.793Z,9.681056
2023-05-23T06:12:58.754Z,9.681074
2023-05-23T06:13:58.827Z,9.681102
2023-05-23T06:14:58.736Z,9.681074
2023-05-23T06:15:58.773Z,9.681071
2023-05-23T06:16:58.710Z,9.681044
2023-05-23T06:17:58.826Z,9.681054
2023-05-23T06:18:58.739Z,9.681057
2023-05-23T06:19:58.707Z,9.681065
2023-05-23T06:20:58.673Z,9.681076
2023-05-23T06:21:58.676Z,9.681075
2023-05-23T06:22:58.664Z,9.681088
2023-05-23T06:23:58.824Z,9.681068
2023-05-23T06:24:59.347Z,9.681085
2023-05-23T06:25:58.697Z,9.681135
2023-05-23T06:26:58.661Z,9.681047
2023-05-23T06:27:58.632Z,9.681130
2023-05-23T06:28:58.589Z,9.680942
2023-05-23T06:29:58.602Z,9.681080
2023-05-23T06:30:58.601Z,9.681026
2023-05-23T06:31:58.642Z,9.681121
2023-05-23T06:32:58.641Z,9.681077
2023-05-23T06:33:58.615Z,9.681065
2023-05-23T06:34:58.544Z,9.681035
2023-05-23T06:35:58.604Z,9.681040
2023-05-23T06:36:58.560Z,9.681055
2023-05-23T06:37:58.526Z,9.681046
2023-05-23T06:38:58.564Z,9.681071
2023-05-23T06:39:58.573Z,9.681079
2023-05-23T06:40:58.481Z,9.681062
2023-05-23T06:41:58.496Z,9.681039
2023-05-23T06:42:58.485Z,9.681112
2023-05-23T06:43:58.498Z,9.681103
2023-05-23T06:44:58.484Z,9.681147
2023-05-23T06:45:58.596Z,9.681124
2023-05-23T06:46:58.487Z,9.681075
2023-05-23T06:47:58.585Z,9.681158
2023-05-23T06:49:13.308Z,9.681054
2023-05-23T06:49:59.462Z,9.681136
2023-05-23T06:50:58.493Z,9.681147
2023-05-23T06:52:05.453Z,9.681125
2023-05-23T06:52:58.406Z,9.681067
2023-05-23T06:53:58.420Z,9.681045
2023-05-23T06:54:58.397Z,9.681028
2023-05-23T06:55:58.412Z,9.681058
2023-05-23T06:56:58.372Z,9.681099
2023-05-23T06:57:58.396Z,9.681095
2023-05-23T06:58:58.352Z,9.681061
2023-05-23T06:59:58.372Z,9.681117
2023-05-23T07:00:58.380Z,9.681066
2023-05-23T07:01:58.423Z,9.681051
2023-05-23T07:02:58.342Z,9.681026
2023-05-23T07:03:58.343Z,9.681020
2023-05-23T07:04:58.328Z,9.681002
2023-05-23T07:05:58.365Z,9.681060
2023-05-23T07:06:58.294Z,9.680985
2023-05-23T07:07:58.293Z,9.681046
2023-05-23T07:08:58.265Z,9.681073
2023-05-23T07:09:58.278Z,9.681103
2023-05-23T07:10:58.277Z,9.681061
2023-05-23T07:11:58.271Z,9.681064
2023-05-23T07:12:58.246Z,9.681083
2023-05-23T07:13:58.257Z,9.681015
2023-05-23T07:14:58.227Z,9.681020
2023-05-23T07:15:58.256Z,9.681048
2023-05-23T07:16:58.285Z,9.681046
2023-05-23T07:17:58.279Z,9.681073
2023-05-23T07:18:58.236Z,9.681021
2023-05-23T07:19:58.197Z,9.681093
2023-05-23T07:20:58.203Z,9.681074
2023-05-23T07:21:58.185Z,9.681067
2023-05-23T07:22:58.168Z,9.680955
2023-05-23T07:23:58.175Z,9.680850
2023-05-23T07:24:58.177Z,9.680855
2023-05-23T07:26:02.480Z,9.680948
2023-05-23T07:26:58.112Z,9.680921
2023-05-23T07:27:58.162Z,9.680783
2023-05-23T07:28:58.134Z,9.680862
2023-05-23T07:29:58.135Z,9.680918
2023-05-23T07:30:58.221Z,9.680907
2023-05-23T07:31:58.111Z,9.680984
2023-05-23T07:32:58.192Z,9.680914
2023-05-23T07:33:58.570Z,9.680919
2023-05-23T07:34:58.083Z,9.680913
2023-05-23T07:35:58.092Z,9.681087
2023-05-23T07:36:58.052Z,9.680925
2023-05-23T07:37:58.074Z,9.680867
2023-05-23T07:38:58.021Z,9.680986
2023-05-23T07:39:58.048Z,9.680947
2023-05-23T07:41:09.881Z,9.680993
2023-05-23T07:41:59.061Z,9.680731
2023-05-23T07:42:57.993Z,9.680718
2023-05-23T07:43:57.994Z,9.680755
2023-05-23T07:44:58.002Z,9.680799
2023-05-23T07:45:57.983Z,9.680632
2023-05-23T07:46:58.019Z,9.681014
2023-05-23T07:47:58.038Z,9.681010
2023-05-23T07:48:57.985Z,9.681086
2023-05-23T07:49:57.975Z,9.681000
2023-05-23T07:50:57.942Z,9.680994
2023-05-23T07:51:57.953Z,9.681017
2023-05-23T07:52:57.904Z,9.681046
2023-05-23T07:53:57.935Z,9.681032
2023-05-23T07:54:57.932Z,9.681042
2023-05-23T07:55:57.902Z,9.681070
2023-05-23T07:56:57.887Z,9.681055
2023-05-23T07:57:57.899Z,9.681002
2023-05-23T07:58:57.882Z,9.681000
2023-05-23T07:59:57.898Z,9.680992
2023-05-23T08:00:57.853Z,9.681016
2023-05-23T08:01:57.867Z,9.681007
2023-05-23T08:02:57.873Z,9.680974
2023-05-23T08:03:57.870Z,9.681002
2023-05-23T08:04:57.802Z,9.681020
2023-05-23T08:05:57.836Z,9.681006
2023-05-23T08:07:04.991Z,9.681014
2023-05-23T08:07:58.816Z,9.680987
2023-05-23T08:08:57.802Z,9.680994
2023-05-23T08:09:57.800Z,9.680991
2023-05-23T08:10:57.779Z,9.680975
2023-05-23T08:11:57.796Z,9.680929
2023-05-23T08:12:57.744Z,9.680915
2023-05-23T08:13:59.432Z,9.680992
2023-05-23T08:14:57.731Z,9.681049
2023-05-23T08:15:57.792Z,9.681006
2023-05-23T08:16:57.867Z,9.681044
2023-05-23T08:17:57.765Z,9.681087
2023-05-23T08:18:57.748Z,9.681028
2023-05-23T08:19:57.748Z,9.681129
2023-05-23T08:20:57.670Z,9.680976
2023-05-23T08:21:57.709Z,9.680984
2023-05-23T08:22:57.673Z,9.681043
2023-05-23T08:23:57.664Z,9.680915
2023-05-23T08:24:57.675Z,9.681039
2023-05-23T08:25:57.725Z,9.681052
2023-05-23T08:26:57.634Z,9.681064
2023-05-23T08:27:57.682Z,9.681051
2023-05-23T08:28:57.616Z,9.681128
2023-05-23T08:29:57.652Z,9.681044
2023-05-23T08:30:57.632Z,9.681085
2023-05-23T08:31:57.673Z,9.681049
2023-05-23T08:32:57.614Z,9.681016
2023-05-23T08:33:57.601Z,9.681070
2023-05-23T08:34:57.579Z,9.681017
2023-05-23T08:35:57.603Z,9.681106
2023-05-23T08:36:57.569Z,9.681068
2023-05-23T08:37:57.595Z,9.681018
2023-05-23T08:38:57.525Z,9.681038
2023-05-23T08:39:57.524Z,9.680914
2023-05-23T08:40:57.519Z,9.681038
2023-05-23T08:41:57.525Z,9.681148
2023-05-23T08:42:57.576Z,9.681067
2023-05-23T08:43:57.558Z,9.681137
2023-05-23T08:44:57.507Z,9.681164
2023-05-23T08:45:57.532Z,9.681106
2023-05-23T08:46:57.497Z,9.681102
2023-05-23T08:47:57.565Z,9.681117
2023-05-23T08:48:57.479Z,9.681088
2023-05-23T08:49:57.453Z,9.681037
2023-05-23T08:50:57.445Z,9.681052
2023-05-23T08:51:57.438Z,9.681026
2023-05-23T08:52:57.460Z,9.681087
2023-05-23T08:53:57.601Z,9.681097
2023-05-23T08:54:57.405Z,9.681118
2023-05-23T08:55:57.444Z,9.681125
2023-05-23T08:56:57.405Z,9.681105
2023-05-23T08:57:57.382Z,9.681045
2023-05-23T08:58:57.383Z,9.681060
2023-05-23T08:59:57.380Z,9.681021
2023-05-23T09:00:57.392Z,9.680985
2023-05-23T09:01:57.388Z,9.681038
2023-05-23T09:02:57.456Z,9.681032
2023-05-23T09:03:57.369Z,9.680955
2023-05-23T09:04:57.337Z,9.680995
2023-05-23T09:05:57.460Z,9.681039
2023-05-23T09:06:57.293Z,9.681059
2023-05-23T09:07:57.322Z,9.681079
2023-05-23T09:08:57.286Z,9.681000
2023-05-23T09:09:57.356Z,9.681110
2023-05-23T09:10:57.272Z,9.681107
2023-05-23T09:11:57.285Z,9.681078
2023-05-23T09:12:57.230Z,9.681087
2023-05-23T09:13:57.273Z,9.681055
2023-05-23T09:14:57.215Z,9.681041
2023-05-23T09:15:57.284Z,9.681052
2023-05-23T09:16:57.210Z,9.680956
2023-05-23T09:17:57.323Z,9.681113
2023-05-23T09:18:57.245Z,9.681143
2023-05-23T09:19:57.222Z,9.681142
2023-05-23T09:20:57.182Z,9.681107
2023-05-23T09:21:57.194Z,9.681087
2023-05-23T09:22:57.165Z,9.681006
2023-05-23T09:23:57.188Z,9.681065
2023-05-23T09:24:57.165Z,9.681235
2023-05-23T09:25:57.183Z,9.681155
2023-05-23T09:26:57.130Z,9.681042
2023-05-23T09:27:57.186Z,9.681031
2023-05-23T09:28:57.107Z,9.680882
2023-05-23T09:29:57.150Z,9.681049
2023-05-23T09:30:57.088Z,9.681121
2023-05-23T09:31:57.250Z,9.681161
2023-05-23T09:32:57.169Z,9.681041
2023-05-23T09:33:57.076Z,9.681085
2023-05-23T09:34:57.131Z,9.681091
2023-05-23T09:35:57.064Z,9.681131
2023-05-23T09:36:57.062Z,9.681039
2023-05-23T09:37:57.071Z,9.681066
2023-05-23T09:38:57.041Z,9.681028
2023-05-23T09:39:57.087Z,9.680951
2023-05-23T09:40:57.017Z,9.680993
2023-05-23T09:41:57.020Z,9.680990
2023-05-23T09:42:57.033Z,9.681035
2023-05-23T09:43:56.994Z,9.681062
2023-05-23T09:44:57.002Z,9.681058
2023-05-23T09:45:56.985Z,9.680984
2023-05-23T09:46:56.981Z,9.681123
2023-05-23T09:47:56.979Z,9.681080
2023-05-23T09:48:56.971Z,9.681042
2023-05-23T09:49:56.953Z,9.681085
2023-05-23T09:50:56.964Z,9.681061
2023-05-23T09:51:56.928Z,9.681076
2023-05-23T09:52:56.891Z,9.681078
2023-05-23T09:53:56.913Z,9.681089
2023-05-23T09:54:56.878Z,9.681078
2023-05-23T09:55:56.921Z,9.681077
2023-05-23T09:56:57.175Z,9.681064
2023-05-23T09:57:56.885Z,9.681005
2023-05-23T09:58:56.899Z,9.681038
2023-05-23T09:59:56.884Z,9.680969
2023-05-23T10:00:56.867Z,9.681026
2023-05-23T10:01:56.855Z,9.681113
2023-05-23T10:02:56.887Z,9.681011
2023-05-23T10:03:59.606Z,9.680987
2023-05-23T10:04:56.817Z,9.680961
2023-05-23T10:05:56.818Z,9.681054
2023-05-23T10:06:56.776Z,9.681058
2023-05-23T10:07:56.796Z,9.681066
2023-05-23T10:08:56.772Z,9.681072
2023-05-23T10:09:58.906Z,9.681104
2023-05-23T10:10:56.847Z,9.681129
2023-05-23T10:11:56.760Z,9.681120
2023-05-23T10:12:56.732Z,9.681146
2023-05-23T10:13:56.890Z,9.681189
2023-05-23T10:14:56.737Z,9.681148
2023-05-23T10:15:57.641Z,9.681195
2023-05-23T10:16:56.737Z,9.681095
2023-05-23T10:17:56.784Z,9.681126
2023-05-23T10:18:56.786Z,9.680996
2023-05-23T10:19:56.700Z,9.680908
2023-05-23T10:20:56.663Z,9.680914
2023-05-23T10:21:56.713Z,9.680988
2023-05-23T10:22:56.648Z,9.681014
2023-05-23T10:23:56.686Z,9.681018
2023-05-23T10:24:56.631Z,9.681042
2023-05-23T10:25:56.687Z,9.681013
2023-05-23T10:26:56.604Z,9.681029
2023-05-23T10:27:56.620Z,9.681008
2023-05-23T10:28:56.594Z,9.680985
2023-05-23T10:29:56.601Z,9.680983
2023-05-23T10:30:56.677Z,9.680983
2023-05-23T10:31:56.606Z,9.680998
2023-05-23T10:32:56.596Z,9.681087
2023-05-23T10:33:56.590Z,9.681083
2023-05-23T10:34:56.560Z,9.681028
2023-05-23T10:35:56.572Z,9.680896
2023-05-23T10:36:56.529Z,9.680948
2023-05-23T10:37:56.551Z,9.680980
2023-05-23T10:38:56.500Z,9.681001
2023-05-23T10:39:56.513Z,9.680977
2023-05-23T10:40:56.516Z,9.680932
2023-05-23T10:41:56.528Z,9.680927
2023-05-23T10:42:56.491Z,9.680945
2023-05-23T10:43:56.494Z,9.681008
2023-05-23T10:44:56.492Z,9.681005
2023-05-23T10:45:56.528Z,9.680946
2023-05-23T10:46:56.495Z,9.680988
2023-05-23T10:47:56.455Z,9.680945
2023-05-23T10:48:56.445Z,9.680930
2023-05-23T10:49:56.448Z,9.681109
2023-05-23T10:50:56.435Z,9.681111
2023-05-23T10:51:56.439Z,9.681098
2023-05-23T10:52:56.434Z,9.681052
2023-05-23T10:53:56.407Z,9.681016
2023-05-23T10:54:56.426Z,9.681047
2023-05-23T10:55:56.410Z,9.681041
2023-05-23T10:56:56.372Z,9.681008
2023-05-23T10:57:56.363Z,9.681083
2023-05-23T10:58:56.387Z,9.681005
2023-05-23T10:59:56.384Z,9.680977
2023-05-23T11:00:56.340Z,9.680956
2023-05-23T11:01:56.561Z,9.680998
2023-05-23T11:02:56.432Z,9.681085
2023-05-23T11:03:56.714Z,9.681055
2023-05-23T11:04:56.311Z,9.681104
2023-05-23T11:05:56.320Z,9.681126
2023-05-23T11:06:56.309Z,9.681026
2023-05-23T11:07:56.315Z,9.680953
2023-05-23T11:08:56.262Z,9.681086
2023-05-23T11:09:56.289Z,9.681023
2023-05-23T11:10:56.298Z,9.680974
2023-05-23T11:11:56.285Z,9.680998
2023-05-23T11:12:56.272Z,9.680948
2023-05-23T11:13:56.264Z,9.680904
2023-05-23T11:14:56.291Z,9.680923
2023-05-23T11:15:56.294Z,9.680990
2023-05-23T11:16:56.287Z,9.681032
2023-05-23T11:17:56.287Z,9.681055
2023-05-23T11:18:56.279Z,9.680991
2023-05-23T11:19:56.191Z,9.680970
2023-05-23T11:20:56.183Z,9.680989
2023-05-23T11:21:56.196Z,9.680997
2023-05-23T11:22:56.208Z,9.680949
2023-05-23T11:23:56.167Z,9.680927
2023-05-23T11:24:56.151Z,9.680984
2023-05-23T11:25:56.133Z,9.680973
2023-05-23T11:26:56.135Z,9.680968
2023-05-23T11:27:56.154Z,9.681057
2023-05-23T11:28:56.106Z,9.681020
2023-05-23T11:29:56.130Z,9.681029
2023-05-23T11:30:56.100Z,9.681010
2023-05-23T11:31:56.132Z,9.681026
2023-05-23T11:32:56.206Z,9.681012
2023-05-23T11:33:56.117Z,9.681008
2023-05-23T11:34:56.053Z,9.681059
2023-05-23T11:35:56.076Z,9.681026
2023-05-23T11:36:56.042Z,9.681018
2023-05-23T11:37:56.068Z,9.680969
2023-05-23T11:38:56.032Z,9.680984
2023-05-23T11:39:56.067Z,9.680996
2023-05-23T11:40:56.023Z,9.681017
2023-05-23T11:41:56.033Z,9.680962
2023-05-23T11:42:56.016Z,9.681044
2023-05-23T11:43:56.021Z,9.681067